createdAt,value
2023-05-14T00:01:28.458Z,60.29
2023-05-14T00:03:56.937Z,60.26
2023-05-14T00:06:24.818Z,60.24
2023-05-14T00:08:53.072Z,60.51
2023-05-14T00:11:22.658Z,58.59
2023-05-14T00:13:51.984Z,59.46
2023-05-14T00:16:20.096Z,60.13
2023-05-14T00:18:48.489Z,60.95
2023-05-14T00:21:17.429Z,60.32
2023-05-14T00:23:45.642Z,60.06
2023-05-14T00:26:13.731Z,60.83
2023-05-14T00:28:44.342Z,60.17
2023-05-14T00:31:13.724Z,60.91
2023-05-14T00:33:42.023Z,60.23
2023-05-14T00:36:10.248Z,60.78
2023-05-14T00:38:40.102Z,59.63
2023-05-14T00:41:08.932Z,59.52
2023-05-14T00:43:37.204Z,59.96
2023-05-14T00:46:05.447Z,60.25
2023-05-14T00:48:34.401Z,59.37
2023-05-14T00:51:02.502Z,60.21
2023-05-14T00:53:31.196Z,59.91
2023-05-14T00:55:59.506Z,60.42
2023-05-14T00:58:30.100Z,61.21
2023-05-14T01:00:58.180Z,60.44
2023-05-14T01:03:27.650Z,60.18
2023-05-14T01:06:07.381Z,59.30
2023-05-14T01:09:05.093Z,59.99
2023-05-14T01:11:42.749Z,59.47
2023-05-14T01:14:12.384Z,59.64
2023-05-14T01:16:40.996Z,60.56
2023-05-14T01:19:23.795Z,60.07
2023-05-14T01:21:52.040Z,59.49
2023-05-14T01:24:20.407Z,59.58
2023-05-14T01:26:48.333Z,60.10
2023-05-14T01:29:23.820Z,59.50
2023-05-14T01:31:57.632Z,60.42
2023-05-14T01:34:28.784Z,60.27
2023-05-14T01:36:58.230Z,59.64
2023-05-14T01:39:28.134Z,60.43
2023-05-14T01:41:57.027Z,59.81
2023-05-14T01:44:25.759Z,59.61
2023-05-14T01:46:53.621Z,59.78
2023-05-14T01:49:21.814Z,59.39
2023-05-14T01:51:49.928Z,59.35
2023-05-14T01:54:18.412Z,59.64
2023-05-14T01:56:46.509Z,59.51
2023-05-14T01:59:15.017Z,58.95
2023-05-14T02:01:42.854Z,58.72
2023-05-14T02:04:11.276Z,58.66
2023-05-14T02:06:43.138Z,58.89
2023-05-14T02:09:11.651Z,58.63
2023-05-14T02:11:39.788Z,59.37
2023-05-14T02:14:08.283Z,58.57
2023-05-14T02:16:36.159Z,60.47
2023-05-14T02:19:04.858Z,58.69
2023-05-14T02:21:53.155Z,59.22
2023-05-14T02:24:21.694Z,59.59
2023-05-14T02:26:49.977Z,59.47
2023-05-14T02:29:19.249Z,59.21
2023-05-14T02:31:47.833Z,59.39
2023-05-14T02:34:16.919Z,59.13
2023-05-14T02:36:44.895Z,58.42
2023-05-14T02:39:13.385Z,59.93
2023-05-14T02:41:41.200Z,59.42
2023-05-14T02:44:09.422Z,59.17
2023-05-14T02:46:37.555Z,59.34
2023-05-14T02:49:05.834Z,58.61
2023-05-14T02:51:33.682Z,59.25
2023-05-14T02:54:02.057Z,57.96
2023-05-14T02:56:32.402Z,58.31
2023-05-14T02:59:01.484Z,58.68
2023-05-14T03:01:29.958Z,58.63
2023-05-14T03:03:58.684Z,58.56
2023-05-14T03:06:27.008Z,57.78
2023-05-14T03:08:55.436Z,58.54
2023-05-14T03:11:23.313Z,57.31
2023-05-14T03:13:51.906Z,57.51
2023-05-14T03:16:20.211Z,58.32
2023-05-14T03:18:48.501Z,57.30
2023-05-14T03:21:16.576Z,57.73
2023-05-14T03:23:44.982Z,57.50
2023-05-14T03:26:12.856Z,57.28
2023-05-14T03:28:41.268Z,57.61
2023-05-14T03:31:09.264Z,56.85
2023-05-14T03:33:38.490Z,57.27
2023-05-14T03:36:06.948Z,57.17
2023-05-14T03:38:35.129Z,57.12
2023-05-14T03:41:02.973Z,57.04
2023-05-14T03:43:31.295Z,56.77
2023-05-14T03:45:59.218Z,56.47
2023-05-14T03:48:27.479Z,56.68
2023-05-14T03:50:55.931Z,56.37
2023-05-14T03:53:24.312Z,56.17
2023-05-14T03:55:52.175Z,55.89
2023-05-14T03:58:20.720Z,55.17
2023-05-14T04:00:48.860Z,54.80
2023-05-14T04:03:17.533Z,54.77
2023-05-14T04:05:45.448Z,54.25
2023-05-14T04:08:14.110Z,54.81
2023-05-14T04:10:43.318Z,54.38
2023-05-14T04:13:11.644Z,53.30
2023-05-14T04:15:40.837Z,52.96
2023-05-14T04:18:09.491Z,53.25
2023-05-14T04:20:37.623Z,52.78
2023-05-14T04:23:06.033Z,53.12
2023-05-14T04:25:34.940Z,53.97
2023-05-14T04:28:03.516Z,53.62
2023-05-14T04:30:31.450Z,53.39
2023-05-14T04:33:00.010Z,53.65
2023-05-14T04:35:29.553Z,53.35
2023-05-14T04:37:58.439Z,53.69
2023-05-14T04:40:26.327Z,53.33
2023-05-14T04:42:54.900Z,54.08
2023-05-14T04:45:22.844Z,54.01
2023-05-14T04:47:51.611Z,54.69
2023-05-14T04:50:19.413Z,54.42
2023-05-14T04:52:48.066Z,54.75
2023-05-14T04:55:16.061Z,54.20
2023-05-14T04:57:45.541Z,54.38
2023-05-14T05:00:13.746Z,54.00
2023-05-14T05:02:43.435Z,53.71
2023-05-14T05:05:11.602Z,54.07
2023-05-14T05:07:40.819Z,52.55
2023-05-14T05:10:09.247Z,53.39
2023-05-14T05:12:37.620Z,52.49
2023-05-14T05:15:06.624Z,53.30
2023-05-14T05:17:36.184Z,53.23
2023-05-14T05:20:06.077Z,53.36
2023-05-14T05:22:34.262Z,53.09
2023-05-14T05:25:02.156Z,52.50
2023-05-14T05:27:31.273Z,52.62
2023-05-14T05:29:59.207Z,52.21
2023-05-14T05:32:27.535Z,52.56
2023-05-14T05:34:55.798Z,52.01
2023-05-14T05:37:24.025Z,52.00
2023-05-14T05:39:54.508Z,51.18
2023-05-14T05:42:23.013Z,51.44
2023-05-14T05:44:51.276Z,51.43
2023-05-14T05:47:19.582Z,51.01
2023-05-14T05:49:47.643Z,50.70
2023-05-14T05:52:15.833Z,51.28
2023-05-14T05:54:43.601Z,50.79
2023-05-14T05:57:12.519Z,51.99
2023-05-14T05:59:40.635Z,51.67
2023-05-14T06:02:08.955Z,51.56
2023-05-14T06:04:37.132Z,51.96
2023-05-14T06:07:06.353Z,51.61
2023-05-14T06:09:34.208Z,51.48
2023-05-14T06:12:03.921Z,51.84
2023-05-14T06:14:33.160Z,51.79
2023-05-14T06:17:01.434Z,52.14
2023-05-14T06:19:29.545Z,51.80
2023-05-14T06:21:58.205Z,51.75
2023-05-14T06:24:26.140Z,51.70
2023-05-14T06:26:54.552Z,52.33
2023-05-14T06:29:22.461Z,52.93
2023-05-14T06:31:51.206Z,51.70
2023-05-14T06:34:19.175Z,51.51
2023-05-14T06:36:47.462Z,51.91
2023-05-14T06:39:15.282Z,51.46
2023-05-14T06:41:43.725Z,50.50
2023-05-14T06:44:19.700Z,50.98
2023-05-14T06:46:48.240Z,50.77
2023-05-14T06:49:16.866Z,50.11
2023-05-14T06:51:45.997Z,50.67
2023-05-14T06:54:13.959Z,50.36
2023-05-14T06:56:42.564Z,50.32
2023-05-14T06:59:10.712Z,50.80
2023-05-14T07:01:39.070Z,50.80
2023-05-14T07:04:06.968Z,51.70
2023-05-14T07:06:35.770Z,51.98
2023-05-14T07:09:04.245Z,50.92
2023-05-14T07:11:34.036Z,51.36
2023-05-14T07:14:01.921Z,51.17
2023-05-14T07:16:30.483Z,50.85
2023-05-14T07:18:58.635Z,51.66
2023-05-14T07:21:26.994Z,50.02
2023-05-14T07:23:54.892Z,50.43
2023-05-14T07:26:24.728Z,50.69
2023-05-14T07:28:52.940Z,50.71
2023-05-14T07:31:21.175Z,50.65
2023-05-14T07:33:49.114Z,50.43
2023-05-14T07:36:17.594Z,50.63
2023-05-14T07:38:45.667Z,49.93
2023-05-14T07:41:15.416Z,50.03
2023-05-14T07:43:44.276Z,50.15
2023-05-14T07:46:12.844Z,49.40
2023-05-14T07:48:40.808Z,49.20
2023-05-14T07:51:09.370Z,49.25
2023-05-14T07:53:37.254Z,49.16
2023-05-14T07:56:08.329Z,49.19
2023-05-14T07:58:36.486Z,48.31
2023-05-14T08:01:07.444Z,48.46
2023-05-14T08:03:35.507Z,48.52
2023-05-14T08:06:04.655Z,48.48
2023-05-14T08:08:32.616Z,48.77
2023-05-14T08:11:01.219Z,49.41
2023-05-14T08:13:30.788Z,49.95
2023-05-14T08:15:59.187Z,50.13
2023-05-14T08:18:27.239Z,50.44
2023-05-14T08:20:55.490Z,50.05
2023-05-14T08:23:23.381Z,50.57
2023-05-14T08:25:52.020Z,50.52
2023-05-14T08:28:19.867Z,50.84
2023-05-14T08:30:48.226Z,50.84
2023-05-14T08:33:16.056Z,50.56
2023-05-14T08:35:44.321Z,51.11
2023-05-14T08:38:12.207Z,50.53
2023-05-14T08:40:40.596Z,50.03
2023-05-14T08:43:11.661Z,49.29
2023-05-14T08:45:40.738Z,49.25
2023-05-14T08:48:17.950Z,49.20
2023-05-14T08:50:48.525Z,48.36
2023-05-14T08:53:16.464Z,48.48
2023-05-14T08:55:46.440Z,48.64
2023-05-14T08:58:15.973Z,48.67
2023-05-14T09:00:44.503Z,49.06
2023-05-14T09:03:13.520Z,48.35
2023-05-14T09:05:43.733Z,48.41
2023-05-14T09:08:11.787Z,48.48
2023-05-14T09:10:40.619Z,48.36
2023-05-14T09:13:10.594Z,48.10
2023-05-14T09:15:41.607Z,48.88
2023-05-14T09:18:12.530Z,49.07
2023-05-14T09:20:41.600Z,49.21
2023-05-14T09:23:09.415Z,49.47
2023-05-14T09:25:37.608Z,49.67
2023-05-14T09:28:11.651Z,49.81
2023-05-14T09:30:39.891Z,50.04
2023-05-14T09:33:11.657Z,49.52
2023-05-14T09:35:41.737Z,49.90
2023-05-14T09:38:09.784Z,50.15
2023-05-14T09:40:38.328Z,49.98
2023-05-14T09:43:06.242Z,50.46
2023-05-14T09:45:35.411Z,49.79
2023-05-14T09:48:04.031Z,49.84
2023-05-14T09:50:32.737Z,49.60
2023-05-14T09:53:01.198Z,50.06
2023-05-14T09:55:29.893Z,49.22
2023-05-14T09:57:57.828Z,49.08
2023-05-14T10:00:26.749Z,49.02
2023-05-14T10:02:57.194Z,48.82
2023-05-14T10:05:27.299Z,48.64
2023-05-14T10:08:00.246Z,49.41
2023-05-14T10:10:30.693Z,49.84
2023-05-14T10:13:01.880Z,50.39
2023-05-14T10:15:59.187Z,50.30
2023-05-14T10:18:29.206Z,49.63
2023-05-14T10:21:06.616Z,50.35
2023-05-14T10:23:38.247Z,50.44
2023-05-14T10:26:07.210Z,51.27
2023-05-14T10:28:35.573Z,51.15
2023-05-14T10:31:04.086Z,51.47
2023-05-14T10:33:47.470Z,51.91
2023-05-14T10:36:16.173Z,51.33
2023-05-14T10:38:44.524Z,51.35
2023-05-14T10:41:16.883Z,51.93
2023-05-14T10:43:45.177Z,52.05
2023-05-14T10:46:15.050Z,52.22
2023-05-14T10:48:44.654Z,51.95
2023-05-14T10:51:13.493Z,51.90
2023-05-14T10:53:43.358Z,52.23
2023-05-14T10:56:15.055Z,52.01
2023-05-14T10:58:44.699Z,52.05
2023-05-14T11:01:14.062Z,52.25
2023-05-14T11:03:45.617Z,51.96
2023-05-14T11:06:16.207Z,51.50
2023-05-14T11:08:44.974Z,51.75
2023-05-14T11:11:13.331Z,51.61
2023-05-14T11:13:41.945Z,51.26
2023-05-14T11:18:42.221Z,50.86
2023-05-14T11:21:17.794Z,51.66
2023-05-14T11:23:49.188Z,51.48
2023-05-14T11:26:18.810Z,51.22
2023-05-14T11:28:48.202Z,51.54
2023-05-14T11:31:16.549Z,51.18
2023-05-14T11:34:10.339Z,51.27
2023-05-14T11:36:38.584Z,50.71
2023-05-14T11:39:06.459Z,51.31
2023-05-14T11:41:34.637Z,51.32
2023-05-14T11:44:03.873Z,51.27
2023-05-14T11:46:32.199Z,50.82
2023-05-14T11:49:00.140Z,50.36
2023-05-14T11:51:28.414Z,50.52
2023-05-14T11:53:56.338Z,50.39
2023-05-14T11:56:24.647Z,50.83
2023-05-14T11:58:59.048Z,51.02
2023-05-14T12:01:29.053Z,51.22
2023-05-14T12:03:57.386Z,51.03
2023-05-14T12:06:32.456Z,51.40
2023-05-14T12:09:01.780Z,51.08
2023-05-14T12:11:33.496Z,51.00
2023-05-14T12:14:01.750Z,50.82
2023-05-14T12:16:33.940Z,50.63
2023-05-14T12:19:02.846Z,50.85
2023-05-14T12:21:31.742Z,50.89
2023-05-14T12:24:00.447Z,50.35
2023-05-14T12:26:29.105Z,50.13
2023-05-14T12:29:01.622Z,50.39
2023-05-14T12:31:34.797Z,50.79
2023-05-14T12:34:04.555Z,50.54
2023-05-14T12:36:32.973Z,50.54
2023-05-14T12:39:03.886Z,51.04
2023-05-14T12:41:32.717Z,51.46
2023-05-14T12:44:01.084Z,51.29
2023-05-14T12:46:29.730Z,50.51
2023-05-14T12:48:58.224Z,51.19
2023-05-14T12:51:26.712Z,51.27
2023-05-14T12:53:54.652Z,51.88
2023-05-14T12:56:28.009Z,51.72
2023-05-14T12:58:56.704Z,51.26
2023-05-14T13:01:25.099Z,50.98
2023-05-14T13:03:53.262Z,50.78
2023-05-14T13:06:21.607Z,51.17
2023-05-14T13:08:49.432Z,51.42
2023-05-14T13:11:17.575Z,50.37
2023-05-14T13:13:45.777Z,51.00
2023-05-14T13:16:17.093Z,50.81
2023-05-14T13:18:45.149Z,50.03
2023-05-14T13:21:13.576Z,50.30
2023-05-14T13:23:41.345Z,50.35
2023-05-14T13:26:10.040Z,50.44
2023-05-14T13:28:38.135Z,50.42
2023-05-14T13:31:13.308Z,50.66
2023-05-14T13:33:43.338Z,50.58
2023-05-14T13:36:13.812Z,50.93
2023-05-14T13:38:41.747Z,50.77
2023-05-14T13:41:10.211Z,50.57
2023-05-14T13:43:38.365Z,51.03
2023-05-14T13:46:07.083Z,50.86
2023-05-14T13:48:36.474Z,51.00
2023-05-14T13:51:04.704Z,51.31
2023-05-14T13:53:32.793Z,51.13
2023-05-14T13:56:06.805Z,50.68
2023-05-14T13:58:34.756Z,50.90
2023-05-14T14:01:03.434Z,51.31
2023-05-14T14:03:31.324Z,51.77
2023-05-14T14:05:59.624Z,51.64
2023-05-14T14:08:27.509Z,51.82
2023-05-14T14:10:55.887Z,51.13
2023-05-14T14:13:23.710Z,52.58
2023-05-14T14:15:52.081Z,52.29
2023-05-14T14:18:20.046Z,52.25
2023-05-14T14:20:48.490Z,52.02
2023-05-14T14:23:16.542Z,51.81
2023-05-14T14:25:44.773Z,52.84
2023-05-14T14:28:12.676Z,53.30
2023-05-14T14:30:41.365Z,53.28
2023-05-14T14:33:09.274Z,53.64
2023-05-14T14:35:38.010Z,53.43
2023-05-14T14:38:06.091Z,53.52
2023-05-14T14:40:34.978Z,54.02
2023-05-14T14:43:04.455Z,53.26
2023-05-14T14:45:32.760Z,54.36
2023-05-14T14:48:25.536Z,54.51
2023-05-14T14:50:55.103Z,54.46
2023-05-14T14:53:23.437Z,54.76
2023-05-14T14:55:52.479Z,54.27
2023-05-14T14:58:21.476Z,54.08
2023-05-14T15:00:54.705Z,54.98
2023-05-14T15:03:24.120Z,54.47
2023-05-14T15:05:53.848Z,54.58
2023-05-14T15:08:27.060Z,54.63
2023-05-14T15:10:56.657Z,54.79
2023-05-14T15:13:24.930Z,55.71
2023-05-14T15:15:53.219Z,55.42
2023-05-14T15:18:21.345Z,55.40
2023-05-14T15:20:50.004Z,56.08
2023-05-14T15:23:18.015Z,56.08
2023-05-14T15:25:47.331Z,55.39
2023-05-14T15:28:15.096Z,55.82
2023-05-14T15:30:43.480Z,56.09
2023-05-14T15:33:11.740Z,55.89
2023-05-14T15:35:40.130Z,56.30
2023-05-14T15:38:08.620Z,56.09
2023-05-14T15:40:36.792Z,55.94
2023-05-14T15:43:05.261Z,55.38
2023-05-14T15:45:33.671Z,55.66
2023-05-14T15:48:01.663Z,55.82
2023-05-14T15:50:29.995Z,56.09
2023-05-14T15:52:57.983Z,55.83
2023-05-14T15:55:26.203Z,55.38
2023-05-14T15:57:54.308Z,55.43
2023-05-14T16:00:23.009Z,56.02
2023-05-14T16:02:52.434Z,55.74
2023-05-14T16:05:20.873Z,56.35
2023-05-14T16:07:48.835Z,55.70
2023-05-14T16:10:17.006Z,55.52
2023-05-14T16:12:45.073Z,55.56
2023-05-14T16:15:13.366Z,55.25
2023-05-14T16:17:42.077Z,56.18
2023-05-14T16:20:12.227Z,55.93
2023-05-14T16:22:40.179Z,56.07
2023-05-14T16:25:08.748Z,56.75
2023-05-14T16:27:36.731Z,56.81
2023-05-14T16:30:06.206Z,56.33
2023-05-14T16:32:35.526Z,56.53
2023-05-14T16:35:03.793Z,56.68
2023-05-14T16:37:33.842Z,56.37
2023-05-14T16:40:02.616Z,56.56
2023-05-14T16:42:32.804Z,56.63
2023-05-14T16:45:01.494Z,55.66
2023-05-14T16:47:33.575Z,56.51
2023-05-14T16:50:01.914Z,56.34
2023-05-14T16:52:32.099Z,56.45
2023-05-14T16:55:01.117Z,55.75
2023-05-14T16:57:32.839Z,55.91
2023-05-14T17:00:02.369Z,56.00
2023-05-14T17:02:33.665Z,55.85
2023-05-14T17:05:02.130Z,55.46
2023-05-14T17:07:33.673Z,55.43
2023-05-14T17:10:02.112Z,55.00
2023-05-14T17:12:33.222Z,54.85
2023-05-14T17:15:04.490Z,55.67
2023-05-14T17:17:34.381Z,54.92
2023-05-14T17:20:02.777Z,55.06
2023-05-14T17:22:32.518Z,54.80
2023-05-14T17:25:00.831Z,54.38
2023-05-14T17:27:32.110Z,54.46
2023-05-14T17:30:01.558Z,54.44
2023-05-14T17:32:34.394Z,54.83
2023-05-14T17:35:04.248Z,54.71
2023-05-14T17:37:34.420Z,54.43
2023-05-14T17:40:04.849Z,54.92
2023-05-14T17:42:33.992Z,55.29
2023-05-14T17:45:02.366Z,54.90
2023-05-14T17:47:33.497Z,55.30
2023-05-14T17:50:02.168Z,54.48
2023-05-14T17:52:32.537Z,55.02
2023-05-14T17:55:00.777Z,54.77
2023-05-14T17:57:29.682Z,55.08
2023-05-14T17:59:58.172Z,54.15
2023-05-14T18:02:27.874Z,54.66
2023-05-14T18:04:56.483Z,55.20
2023-05-14T18:07:25.727Z,55.35
2023-05-14T18:09:57.028Z,55.28
2023-05-14T18:12:28.181Z,54.85
2023-05-14T18:14:56.500Z,55.81
2023-05-14T18:17:24.533Z,54.94
2023-05-14T18:19:53.091Z,55.54
2023-05-14T18:22:21.878Z,55.75
2023-05-14T18:24:50.157Z,55.58
2023-05-14T18:27:18.140Z,56.08
2023-05-14T18:29:47.028Z,56.04
2023-05-14T18:32:15.117Z,57.08
2023-05-14T18:34:43.784Z,56.39
2023-05-14T18:37:11.691Z,56.60
2023-05-14T18:39:40.269Z,57.21
2023-05-14T18:42:08.436Z,57.16
2023-05-14T18:44:36.802Z,57.83
2023-05-14T18:47:05.183Z,57.92
2023-05-14T18:49:33.372Z,58.10
2023-05-14T18:52:01.413Z,58.01
2023-05-14T18:54:29.733Z,57.83
2023-05-14T18:56:57.714Z,57.62
2023-05-14T18:59:25.997Z,57.25
2023-05-14T19:01:54.091Z,57.10
2023-05-14T19:04:23.079Z,57.39
2023-05-14T19:06:51.017Z,56.75
2023-05-14T19:09:21.439Z,56.09
2023-05-14T19:11:49.921Z,55.22
2023-05-14T19:14:18.378Z,54.53
2023-05-14T19:16:46.315Z,55.51
2023-05-14T19:19:16.253Z,54.58
2023-05-14T19:21:44.182Z,55.25
2023-05-14T19:24:13.782Z,55.35
2023-05-14T19:26:42.285Z,55.21
2023-05-14T19:29:13.164Z,55.46
2023-05-14T19:31:41.241Z,55.59
2023-05-14T19:34:09.446Z,55.13
2023-05-14T19:36:37.326Z,55.15
2023-05-14T19:39:05.685Z,55.23
2023-05-14T19:41:33.473Z,54.70
2023-05-14T19:44:01.745Z,54.31
2023-05-14T19:46:29.912Z,54.00
2023-05-14T19:48:58.341Z,53.97
2023-05-14T19:51:26.246Z,54.69
2023-05-14T19:53:54.560Z,55.66
2023-05-14T19:56:23.538Z,55.72
2023-05-14T19:58:54.877Z,56.50
2023-05-14T20:01:22.912Z,55.94
2023-05-14T20:03:51.121Z,55.73
2023-05-14T20:06:21.154Z,55.75
2023-05-14T20:08:49.719Z,55.96
2023-05-14T20:11:19.758Z,55.48
2023-05-14T20:13:48.370Z,55.32
2023-05-14T20:16:17.141Z,55.76
2023-05-14T20:18:45.536Z,55.46
2023-05-14T20:21:13.638Z,54.75
2023-05-14T20:23:43.044Z,55.42
2023-05-14T20:26:10.955Z,55.64
2023-05-14T20:28:39.277Z,55.94
2023-05-14T20:31:07.248Z,56.25
2023-05-14T20:33:36.789Z,56.61
2023-05-14T20:36:05.646Z,57.07
2023-05-14T20:38:35.300Z,56.86
2023-05-14T20:41:03.312Z,57.17
2023-05-14T20:43:33.557Z,57.20
2023-05-14T20:46:09.325Z,56.88
2023-05-14T20:48:40.559Z,57.38
2023-05-14T20:51:12.112Z,57.03
2023-05-14T20:53:43.597Z,56.70
2023-05-14T20:56:12.666Z,57.27
2023-05-14T20:58:41.490Z,57.56
2023-05-14T21:01:09.879Z,56.97
2023-05-14T21:03:38.245Z,56.24
2023-05-14T21:06:07.481Z,56.95
2023-05-14T21:08:37.972Z,57.00
2023-05-14T21:11:07.152Z,56.65
2023-05-14T21:13:35.294Z,56.71
2023-05-14T21:16:03.326Z,56.97
2023-05-14T21:18:33.343Z,56.81
2023-05-14T21:21:01.429Z,57.47
2023-05-14T21:23:32.960Z,57.30
2023-05-14T21:26:00.969Z,57.63
2023-05-14T21:28:30.085Z,57.60
2023-05-14T21:30:58.004Z,57.72
2023-05-14T21:33:26.248Z,57.52
2023-05-14T21:35:54.563Z,57.78
2023-05-14T21:38:22.981Z,57.76
2023-05-14T21:40:50.829Z,57.42
2023-05-14T21:43:19.685Z,57.50
2023-05-14T21:45:48.739Z,57.90
2023-05-14T21:48:21.773Z,57.60
2023-05-14T21:50:49.867Z,58.12
2023-05-14T21:53:18.302Z,58.07
2023-05-14T21:55:47.199Z,57.23
2023-05-14T21:58:16.479Z,57.87
2023-05-14T22:00:44.265Z,56.94
2023-05-14T22:03:12.643Z,57.37
2023-05-14T22:05:41.192Z,57.27
2023-05-14T22:08:11.572Z,57.06
2023-05-14T22:10:39.963Z,56.95
2023-05-14T22:13:10.176Z,57.63
2023-05-14T22:15:38.649Z,57.48
2023-05-14T22:18:07.131Z,57.03
2023-05-14T22:20:35.140Z,56.86
2023-05-14T22:23:03.426Z,56.54
2023-05-14T22:25:31.721Z,56.89
2023-05-14T22:28:00.097Z,56.99
2023-05-14T22:30:27.957Z,56.48
2023-05-14T22:32:56.260Z,56.50
2023-05-14T22:35:24.444Z,56.49
2023-05-14T22:37:52.890Z,56.85
2023-05-14T22:40:20.942Z,56.65
2023-05-14T22:42:51.957Z,56.37
2023-05-14T22:45:20.204Z,56.33
2023-05-14T22:47:52.044Z,55.71
2023-05-14T22:50:20.108Z,56.18
2023-05-14T22:52:48.321Z,57.07
2023-05-14T22:55:16.240Z,56.07
2023-05-14T22:57:44.634Z,56.37
2023-05-14T23:00:13.550Z,56.54
2023-05-14T23:02:42.025Z,56.93
2023-05-14T23:05:10.341Z,57.18
2023-05-14T23:07:39.055Z,57.37
2023-05-14T23:10:22.488Z,57.94
2023-05-14T23:12:54.926Z,57.70
2023-05-14T23:15:23.075Z,58.17
2023-05-14T23:17:51.615Z,58.04
2023-05-14T23:20:19.541Z,58.09
2023-05-14T23:22:48.170Z,58.73
2023-05-14T23:25:16.121Z,58.25
2023-05-14T23:27:44.315Z,58.20
2023-05-14T23:30:12.654Z,58.57
2023-05-14T23:32:40.908Z,58.19
2023-05-14T23:35:10.694Z,58.62
2023-05-14T23:37:42.886Z,58.41
2023-05-14T23:40:11.370Z,58.02
2023-05-14T23:42:39.538Z,58.23
2023-05-14T23:45:08.023Z,58.70
2023-05-14T23:47:36.600Z,58.05
2023-05-14T23:50:05.070Z,58.99
2023-05-14T23:52:33.908Z,59.00
2023-05-14T23:55:02.013Z,58.52
2023-05-14T23:57:32.452Z,59.57
